Time;durP1;ratioP1;P1;durP2;ratioP2;P2;SDS_P1;SDS_P2;PMS_P1;PMS_P2;Temp;Humidity;BMP_temperature;BMP_pressure;BME280_temperature;BME280_humidity;BME280_pressure;Samples;Min_cycle;Max_cycle;Signal;HPM_P1;HPM_P2
2022/07/15 00:01:21;;;;;;;31.38;3.30;;;43.10;23.90;;;;;;5026791;28;20134;-67
2022/07/15 00:03:48;;;;;;;40.80;4.03;;;43.00;23.80;;;;;;5027430;28;20050;-70
2022/07/15 00:06:14;;;;;;;34.92;4.13;;;42.90;23.60;;;;;;5010891;28;20095;-64
2022/07/15 00:08:41;;;;;;;40.20;4.05;;;42.70;24.30;;;;;;5029145;28;20516;-65
2022/07/15 00:11:07;;;;;;;39.10;3.88;;;42.60;25.30;;;;;;5042377;28;20064;-64
2022/07/15 00:13:33;;;;;;;41.20;3.85;;;42.50;24.70;;;;;;5027092;28;20044;-63
2022/07/15 00:16:00;;;;;;;31.63;4.03;;;42.50;24.90;;;;;;5027656;28;20138;-63
2022/07/15 00:18:26;;;;;;;18.65;2.10;;;42.50;24.80;;;;;;5028392;28;20515;-66
2022/07/15 00:20:53;;;;;;;12.50;2.70;;;42.30;24.80;;;;;;5032309;28;20042;-67
2022/07/15 00:23:19;;;;;;;29.35;3.53;;;42.40;24.90;;;;;;5032030;28;20077;-67
2022/07/15 00:25:45;;;;;;;37.60;4.05;;;42.50;25.20;;;;;;5014739;28;20070;-66
2022/07/15 00:28:12;;;;;;;35.03;3.88;;;42.60;25.30;;;;;;5030406;28;20049;-64
2022/07/15 00:30:41;;;;;;;34.95;4.15;;;42.60;26.20;;;;;;5031059;28;20070;-66
2022/07/15 00:33:09;;;;;;;31.67;3.65;;;42.50;26.30;;;;;;5028901;28;20501;-64
2022/07/15 00:35:37;;;;;;;35.30;3.65;;;42.50;26.60;;;;;;5029677;28;20139;-65
2022/07/15 00:38:05;;;;;;;33.15;3.28;;;42.40;26.60;;;;;;5029821;28;20047;-66
2022/07/15 00:40:31;;;;;;;22.15;3.20;;;42.40;27.00;;;;;;5013103;28;20062;-64
2022/07/15 00:42:58;;;;;;;26.25;3.50;;;42.30;27.30;;;;;;5031197;28;20045;-66
2022/07/15 00:45:25;;;;;;;32.20;3.25;;;42.20;27.70;;;;;;5030763;28;20051;-65
2022/07/15 00:47:54;;;;;;;22.60;3.03;;;42.20;28.10;;;;;;5029560;28;20040;-65
2022/07/15 00:50:23;;;;;;;39.60;4.38;;;42.10;28.30;;;;;;5046907;28;20047;-64
2022/07/15 00:53:16;;;;;;;21.70;3.17;;;42.20;28.00;;;;;;5013605;28;20041;-65
2022/07/15 00:55:45;;;;;;;23.35;3.33;;;42.20;27.90;;;;;;5029613;28;20069;-65
2022/07/15 00:58:21;;;;;;;19.40;3.20;;;42.20;27.70;;;;;;5029803;28;20121;-63
2022/07/15 01:00:48;;;;;;;19.52;2.97;;;42.00;27.60;;;;;;5029808;28;20039;-66
2022/07/15 01:03:17;;;;;;;13.25;2.63;;;42.10;27.20;;;;;;5030357;28;20037;-65
2022/07/15 01:05:46;;;;;;;16.23;2.72;;;41.90;27.40;;;;;;5029340;28;20069;-64
2022/07/15 01:08:13;;;;;;;16.23;2.47;;;41.90;27.80;;;;;;5029189;28;20052;-63
2022/07/15 01:10:40;;;;;;;19.98;2.60;;;41.70;27.30;;;;;;5029970;28;20557;-64
2022/07/15 01:13:07;;;;;;;22.10;2.65;;;41.60;26.00;;;;;;5030116;28;20042;-64
2022/07/15 01:15:33;;;;;;;20.08;2.50;;;41.50;25.20;;;;;;5030533;28;20521;-63
2022/07/15 01:18:02;;;;;;;15.30;2.42;;;41.40;24.50;;;;;;5045525;28;20050;-62
2022/07/15 01:20:30;;;;;;;13.10;2.00;;;41.30;23.70;;;;;;5030412;28;20042;-64
2022/07/15 01:22:58;;;;;;;27.70;4.07;;;41.20;23.70;;;;;;5030084;28;20501;-63
2022/07/15 01:25:26;;;;;;;19.40;2.92;;;41.10;25.10;;;;;;5029040;28;20049;-64
2022/07/15 01:27:52;;;;;;;11.18;2.00;;;41.00;23.80;;;;;;5028911;28;20045;-64
2022/07/15 01:30:18;;;;;;;17.88;2.58;;;40.90;22.50;;;;;;5028520;28;20070;-64
2022/07/15 01:32:45;;;;;;;19.23;2.15;;;40.70;21.10;;;;;;5029342;28;20057;-63
2022/07/15 01:35:12;;;;;;;12.43;1.80;;;40.50;20.60;;;;;;5028896;28;20073;-63
2022/07/15 01:37:38;;;;;;;17.65;2.13;;;40.40;21.30;;;;;;5030213;28;20050;-65
2022/07/15 01:40:07;;;;;;;7.18;1.48;;;40.20;22.20;;;;;;5045380;28;21018;-64
2022/07/15 01:42:33;;;;;;;15.55;2.30;;;40.00;22.70;;;;;;5029760;28;20414;-66
2022/07/15 01:45:00;;;;;;;8.93;1.67;;;39.90;22.50;;;;;;5029952;28;20059;-64
2022/07/15 01:47:26;;;;;;;12.85;1.50;;;39.80;22.60;;;;;;5029744;28;20058;-64
2022/07/15 01:50:13;;;;;;;17.75;2.22;;;39.80;22.30;;;;;;5045662;28;20061;-65
2022/07/15 01:52:39;;;;;;;;;;;39.70;22.90;;;;;;5028932;28;20729;-64
2022/07/15 01:55:07;;;;;;;14.50;2.30;;;39.60;23.80;;;;;;5028094;28;20055;-64
2022/07/15 01:57:33;;;;;;;12.10;2.50;;;39.60;24.30;;;;;;5012258;28;20440;-63
2022/07/15 02:00:00;;;;;;;13.25;2.15;;;39.60;25.00;;;;;;5011938;28;20063;-66
2022/07/15 02:02:26;;;;;;;12.82;2.97;;;39.60;25.60;;;;;;5027998;28;20049;-63
2022/07/15 02:04:53;;;;;;;14.18;2.95;;;39.50;25.10;;;;;;5028357;28;20526;-62
2022/07/15 02:07:19;;;;;;;25.83;3.33;;;39.50;25.20;;;;;;5044469;28;20569;-67
2022/07/15 02:09:46;;;;;;;18.70;3.10;;;39.30;24.70;;;;;;5030216;28;20083;-64
2022/07/15 02:12:12;;;;;;;19.80;2.58;;;39.30;25.00;;;;;;5029404;28;20078;-63
2022/07/15 02:14:38;;;;;;;29.52;3.30;;;39.30;25.50;;;;;;5044802;28;20070;-64
2022/07/15 02:17:05;;;;;;;18.52;2.90;;;39.20;25.80;;;;;;5028480;28;20055;-65
2022/07/15 02:19:31;;;;;;;18.70;3.28;;;39.20;26.30;;;;;;5029393;28;20066;-64
2022/07/15 02:21:57;;;;;;;18.58;4.22;;;39.10;26.70;;;;;;5028103;28;20054;-64
2022/07/15 02:24:24;;;;;;;16.40;2.78;;;39.10;27.10;;;;;;5027890;28;20059;-64
2022/07/15 02:26:50;;;;;;;13.80;2.17;;;38.90;26.70;;;;;;5045124;28;20070;-64
2022/07/15 02:29:18;;;;;;;21.77;2.20;;;38.90;25.90;;;;;;5028021;28;20068;-64
2022/07/15 02:31:44;;;;;;;17.95;2.60;;;38.70;25.90;;;;;;4995886;28;20157;-64
2022/07/15 02:34:11;;;;;;;12.23;2.47;;;38.60;25.00;;;;;;5027635;28;20454;-64
2022/07/15 02:36:38;;;;;;;18.75;2.45;;;38.60;24.50;;;;;;5027754;28;20072;-66
2022/07/15 02:39:06;;;;;;;13.30;2.20;;;38.50;24.70;;;;;;5044004;28;20130;-64
2022/07/15 02:41:33;;;;;;;20.95;3.25;;;38.40;25.10;;;;;;5043664;28;20055;-64
2022/07/15 02:44:00;;;;;;;29.13;2.40;;;38.30;25.50;;;;;;4995183;28;20091;-65
2022/07/15 02:46:26;;;;;;;16.08;2.58;;;38.20;25.50;;;;;;5027752;28;20157;-64
2022/07/15 02:48:53;;;;;;;24.58;2.60;;;38.20;25.60;;;;;;5012049;28;20076;-67
2022/07/15 02:51:19;;;;;;;20.75;3.10;;;38.00;26.30;;;;;;5028505;28;20068;-67
2022/07/15 02:53:46;;;;;;;13.63;2.63;;;38.00;26.70;;;;;;5044157;28;20064;-65
2022/07/15 02:56:12;;;;;;;18.40;2.80;;;37.90;26.90;;;;;;5044602;28;20148;-66
2022/07/15 02:58:39;;;;;;;30.23;3.25;;;37.80;27.20;;;;;;5043844;28;20568;-65
2022/07/15 03:01:05;;;;;;;20.65;2.97;;;37.90;27.60;;;;;;5026877;28;20066;-64
2022/07/15 03:03:31;;;;;;;18.98;3.38;;;37.70;27.90;;;;;;5029215;28;20473;-64
2022/07/15 03:06:00;;;;;;;18.90;3.17;;;37.60;28.30;;;;;;5027144;28;20084;-67
2022/07/15 03:08:26;;;;;;;14.20;3.08;;;37.60;28.90;;;;;;5027452;28;20082;-65
2022/07/15 03:10:53;;;;;;;15.50;2.90;;;37.40;29.30;;;;;;5027730;28;20091;-67
2022/07/15 03:13:20;;;;;;;23.02;3.10;;;37.30;29.70;;;;;;5027024;28;20095;-65
2022/07/15 03:15:46;;;;;;;28.40;3.05;;;37.30;30.60;;;;;;5029164;28;20104;-65
2022/07/15 03:18:13;;;;;;;19.67;3.10;;;37.20;31.10;;;;;;5028128;28;20550;-65
2022/07/15 03:20:39;;;;;;;21.30;3.47;;;37.10;31.90;;;;;;5027147;28;20615;-64
2022/07/15 03:23:06;;;;;;;21.75;2.72;;;37.00;31.50;;;;;;5043888;28;20167;-65
2022/07/15 03:25:32;;;;;;;22.67;3.45;;;36.90;32.00;;;;;;5026914;28;20551;-64
2022/07/15 03:27:59;;;;;;;17.52;3.38;;;36.80;32.10;;;;;;5043435;28;20072;-63
2022/07/15 03:30:25;;;;;;;19.05;3.50;;;36.80;32.20;;;;;;5027116;28;20082;-67
2022/07/15 03:32:51;;;;;;;26.75;3.47;;;36.70;32.10;;;;;;5043557;28;20073;-65
2022/07/15 03:35:18;;;;;;;26.33;3.45;;;36.70;32.20;;;;;;5042500;28;20096;-64
2022/07/15 03:37:44;;;;;;;15.00;3.47;;;36.60;32.20;;;;;;5026972;28;20087;-66
2022/07/15 03:40:11;;;;;;;18.13;3.63;;;36.60;32.40;;;;;;5027156;28;20539;-66
2022/07/15 03:42:38;;;;;;;19.02;4.07;;;36.50;32.50;;;;;;5043070;28;20072;-64
2022/07/15 03:45:05;;;;;;;17.10;3.80;;;36.50;32.80;;;;;;5010800;28;20528;-67
2022/07/15 03:47:31;;;;;;;14.60;3.30;;;36.40;32.90;;;;;;5027269;28;20085;-64
2022/07/15 03:49:57;;;;;;;17.30;3.70;;;36.20;33.10;;;;;;5026898;28;20549;-64
2022/07/15 03:52:24;;;;;;;20.67;3.83;;;36.10;33.20;;;;;;5028439;28;20080;-66
2022/07/15 03:54:50;;;;;;;23.70;3.78;;;36.10;33.50;;;;;;5031583;28;20091;-64
2022/07/15 03:57:16;;;;;;;37.78;5.75;;;36.00;34.50;;;;;;5047701;28;20095;-65
2022/07/15 03:59:44;;;;;;;18.25;4.20;;;35.90;34.10;;;;;;5032970;28;20078;-65
2022/07/15 04:02:11;;;;;;;29.38;5.28;;;35.90;34.30;;;;;;5031460;28;20537;-64
2022/07/15 04:04:37;;;;;;;24.83;4.65;;;35.90;34.50;;;;;;5032533;28;20593;-64
2022/07/15 04:07:03;;;;;;;25.95;4.18;;;35.90;34.60;;;;;;5031370;28;20126;-66
2022/07/15 04:09:30;;;;;;;22.00;4.43;;;35.90;34.70;;;;;;5031819;28;20588;-66
2022/07/15 04:11:56;;;;;;;19.92;4.50;;;35.80;34.50;;;;;;5031536;28;20548;-69
2022/07/15 04:14:22;;;;;;;23.30;3.58;;;35.80;34.60;;;;;;5031243;28;20218;-66
2022/07/15 04:16:49;;;;;;;19.20;3.35;;;35.70;34.30;;;;;;5032425;28;20552;-66
2022/07/15 04:19:15;;;;;;;26.05;4.47;;;35.70;34.20;;;;;;5048729;28;20072;-67
2022/07/15 04:21:42;;;;;;;21.98;4.18;;;35.70;33.30;;;;;;5032052;28;20127;-66
2022/07/15 04:24:08;;;;;;;15.05;3.30;;;35.70;32.50;;;;;;5031953;28;20078;-66
2022/07/15 04:26:35;;;;;;;12.85;2.95;;;35.70;30.70;;;;;;5032706;28;20076;-68
2022/07/15 04:29:01;;;;;;;12.25;3.10;;;35.70;30.30;;;;;;5014916;28;20424;-66
2022/07/15 04:31:27;;;;;;;23.98;3.17;;;35.70;29.40;;;;;;5031316;28;20068;-69
2022/07/15 04:33:54;;;;;;;18.70;2.90;;;35.60;28.50;;;;;;5033349;28;20076;-68
2022/07/15 04:36:20;;;;;;;23.05;2.70;;;35.60;28.20;;;;;;5035097;28;20089;-70
2022/07/15 04:38:47;;;;;;;26.45;3.03;;;35.70;27.60;;;;;;5032657;28;20064;-66
2022/07/15 04:41:13;;;;;;;16.73;2.72;;;35.70;27.40;;;;;;5032901;28;20079;-69
2022/07/15 04:43:39;;;;;;;10.88;3.00;;;35.70;27.40;;;;;;5032635;28;20088;-67
2022/07/15 04:46:06;;;;;;;28.02;3.17;;;35.60;27.70;;;;;;5032374;28;20080;-68
2022/07/15 04:51:17;;;;;;;13.88;2.75;;;35.60;27.50;;;;;;5032360;28;20094;-68
2022/07/15 04:53:43;;;;;;;13.05;2.58;;;35.50;27.80;;;;;;5032313;28;20076;-68
2022/07/15 04:56:10;;;;;;;12.70;3.13;;;35.60;27.90;;;;;;5031065;28;20164;-67
2022/07/15 04:58:36;;;;;;;14.23;2.95;;;35.50;28.00;;;;;;5031004;28;20128;-67
2022/07/15 05:01:03;;;;;;;22.20;3.13;;;35.50;27.80;;;;;;5014788;28;20105;-65
2022/07/15 05:03:29;;;;;;;23.60;2.97;;;35.40;27.50;;;;;;5047441;28;20080;-68
2022/07/15 05:05:55;;;;;;;11.18;2.92;;;35.40;27.90;;;;;;5030393;28;20210;-66
2022/07/15 05:08:22;;;;;;;24.75;3.33;;;35.30;28.30;;;;;;5047617;28;20069;-67
2022/07/15 05:10:48;;;;;;;18.63;3.35;;;35.30;28.50;;;;;;5032131;28;20154;-68
2022/07/15 05:13:15;;;;;;;24.25;3.55;;;35.30;28.90;;;;;;5030622;28;20094;-68
2022/07/15 05:15:41;;;;;;;22.00;3.83;;;35.20;29.30;;;;;;5047932;28;20131;-66
2022/07/15 05:18:08;;;;;;;20.85;3.78;;;35.20;29.50;;;;;;5031196;28;20170;-65
2022/07/15 05:20:34;;;;;;;13.57;4.10;;;35.10;29.70;;;;;;5030663;28;20085;-66
2022/07/15 05:23:00;;;;;;;21.35;4.30;;;35.00;29.90;;;;;;5030673;28;20168;-67
2022/07/15 05:25:27;;;;;;;15.80;4.00;;;34.90;29.50;;;;;;5046977;28;20078;-66
2022/07/15 05:27:53;;;;;;;17.88;5.10;;;34.90;29.00;;;;;;5031694;28;20075;-67
2022/07/15 05:30:20;;;;;;;11.75;3.00;;;34.80;28.50;;;;;;5046957;28;20190;-68
2022/07/15 05:32:46;;;;;;;15.18;3.20;;;34.80;28.60;;;;;;5031588;28;20079;-67
2022/07/15 05:35:16;;;;;;;16.50;3.42;;;34.90;28.30;;;;;;5046707;28;20095;-65
2022/07/15 05:37:43;;;;;;;12.52;2.65;;;34.80;28.20;;;;;;5030472;28;20076;-68
2022/07/15 05:40:11;;;;;;;24.08;3.65;;;34.80;27.20;;;;;;5029858;28;20199;-71
2022/07/15 05:42:40;;;;;;;16.90;2.92;;;34.90;27.30;;;;;;5029334;28;20077;-71
2022/07/15 05:45:07;;;;;;;20.20;2.88;;;34.90;26.60;;;;;;5029561;28;20089;-71
2022/07/15 05:47:34;;;;;;;15.52;2.40;;;34.90;26.60;;;;;;5031431;28;20198;-71
2022/07/15 05:50:00;;;;;;;17.75;2.83;;;34.90;26.70;;;;;;5045886;28;20080;-68
2022/07/15 05:52:27;;;;;;;12.18;2.90;;;34.90;27.40;;;;;;5029520;28;20071;-69
2022/07/15 05:54:53;;;;;;;12.30;3.15;;;34.90;27.20;;;;;;5028739;28;20131;-67
2022/07/15 05:57:19;;;;;;;13.45;2.58;;;34.90;27.10;;;;;;5028207;28;20077;-69
2022/07/15 05:59:46;;;;;;;18.60;3.28;;;34.80;27.10;;;;;;5030399;28;20160;-69
2022/07/15 06:02:13;;;;;;;14.88;3.20;;;34.80;27.10;;;;;;5028967;28;20465;-69
2022/07/15 06:04:40;;;;;;;16.80;2.88;;;34.80;27.30;;;;;;5029665;28;20069;-71
2022/07/15 06:07:07;;;;;;;10.55;2.88;;;34.80;27.60;;;;;;5045451;28;20083;-69
2022/07/15 06:09:33;;;;;;;22.77;3.92;;;34.80;28.00;;;;;;5029110;28;20171;-70
2022/07/15 06:11:59;;;;;;;25.10;3.92;;;34.70;28.40;;;;;;5028558;28;20093;-69
2022/07/15 06:14:26;;;;;;;17.23;3.20;;;34.70;28.50;;;;;;5045621;28;20183;-69
2022/07/15 06:16:52;;;;;;;15.73;3.20;;;34.70;28.80;;;;;;5030739;28;20060;-70
2022/07/15 06:19:18;;;;;;;13.98;2.97;;;34.60;28.20;;;;;;5028672;28;20092;-71
2022/07/15 06:21:45;;;;;;;14.20;2.83;;;34.60;28.80;;;;;;5028769;28;20105;-69
2022/07/15 06:24:11;;;;;;;10.05;3.03;;;34.50;29.40;;;;;;5045157;28;20080;-70
2022/07/15 06:26:38;;;;;;;14.15;2.88;;;34.60;30.10;;;;;;5028736;28;20179;-71
2022/07/15 06:29:05;;;;;;;12.63;2.67;;;34.40;30.20;;;;;;5045280;28;20436;-70
2022/07/15 06:31:31;;;;;;;14.63;3.00;;;34.40;30.70;;;;;;5028547;28;20076;-71
2022/07/15 06:33:58;;;;;;;13.25;2.95;;;34.30;30.40;;;;;;5028002;28;20097;-70
2022/07/15 06:36:26;;;;;;;14.55;2.78;;;34.30;30.50;;;;;;5028368;28;20759;-71
2022/07/15 06:38:52;;;;;;;12.00;2.65;;;34.30;30.20;;;;;;5027058;28;20159;-70
2022/07/15 06:41:18;;;;;;;14.15;3.05;;;34.20;30.70;;;;;;5028306;28;20515;-71
2022/07/15 06:43:45;;;;;;;19.85;4.13;;;34.20;30.80;;;;;;5028329;28;20088;-70
2022/07/15 06:46:12;;;;;;;22.13;5.70;;;34.20;30.60;;;;;;5028749;28;20111;-73
2022/07/15 06:48:39;;;;;;;18.85;4.75;;;34.10;30.30;;;;;;5028786;28;20109;-71
2022/07/15 06:51:11;;;;;;;24.70;5.30;;;34.10;30.50;;;;;;5029127;28;20601;-72
2022/07/15 06:53:37;;;;;;;22.13;5.95;;;34.00;30.90;;;;;;5044905;28;20079;-70
2022/07/15 06:56:04;;;;;;;24.75;6.15;;;33.90;31.10;;;;;;5027801;28;20091;-69
2022/07/15 06:58:31;;;;;;;23.33;5.72;;;33.90;31.30;;;;;;5027103;28;20123;-70
2022/07/15 07:00:58;;;;;;;23.10;6.30;;;33.80;31.50;;;;;;5027880;28;20073;-70
2022/07/15 07:03:25;;;;;;;22.63;5.80;;;33.70;31.50;;;;;;5045013;28;20175;-68
2022/07/15 07:05:52;;;;;;;20.95;5.85;;;33.70;32.70;;;;;;5026440;28;20096;-70
2022/07/15 07:08:18;;;;;;;22.52;6.82;;;33.70;32.60;;;;;;5028621;28;20122;-69
2022/07/15 07:10:45;;;;;;;18.02;6.07;;;33.60;30.20;;;;;;5029692;28;20096;-71
2022/07/15 07:13:11;;;;;;;20.67;6.18;;;33.60;30.80;;;;;;5044189;28;20075;-70
2022/07/15 07:15:38;;;;;;;18.75;6.40;;;33.50;31.10;;;;;;5027586;28;20127;-70
2022/07/15 07:18:04;;;;;;;21.20;6.20;;;33.50;31.20;;;;;;5028542;28;20523;-70
2022/07/15 07:20:31;;;;;;;20.05;6.65;;;33.50;32.70;;;;;;5028307;28;20435;-69
2022/07/15 07:22:57;;;;;;;25.20;7.07;;;33.40;31.70;;;;;;5027802;28;20065;-71
2022/07/15 07:25:24;;;;;;;22.80;6.00;;;33.40;32.10;;;;;;5028089;28;20077;-72
2022/07/15 07:27:51;;;;;;;21.40;5.10;;;33.30;31.50;;;;;;5026941;28;20076;-72
2022/07/15 07:30:17;;;;;;;18.45;4.13;;;33.30;33.70;;;;;;5027372;28;20142;-74
2022/07/15 07:32:44;;;;;;;13.45;3.22;;;33.20;33.50;;;;;;5044306;28;20069;-75
2022/07/15 07:35:11;;;;;;;9.05;2.75;;;33.10;35.50;;;;;;5043383;28;20190;-68
2022/07/15 07:37:38;;;;;;;9.60;2.65;;;33.00;38.50;;;;;;5044096;28;20549;-70
2022/07/15 07:40:08;;;;;;;9.13;2.63;;;32.80;40.50;;;;;;5028014;28;20104;-71
2022/07/15 07:42:35;;;;;;;11.25;3.17;;;32.80;41.50;;;;;;5027604;28;20437;-71
2022/07/15 07:45:02;;;;;;;14.25;3.30;;;32.80;42.60;;;;;;5028817;28;20080;-71
2022/07/15 07:47:28;;;;;;;21.00;4.20;;;32.80;43.80;;;;;;5045258;28;20143;-70
2022/07/15 07:49:55;;;;;;;20.88;4.75;;;32.60;44.10;;;;;;5027253;28;20178;-70
2022/07/15 07:52:21;;;;;;;21.00;5.28;;;32.60;45.60;;;;;;5044020;28;20489;-70
2022/07/15 07:54:48;;;;;;;20.92;5.80;;;32.50;45.40;;;;;;5043803;28;20093;-70
2022/07/15 07:57:14;;;;;;;16.42;5.20;;;32.20;45.90;;;;;;5028401;28;20073;-70
2022/07/15 07:59:40;;;;;;;27.13;6.07;;;32.20;45.80;;;;;;5027388;28;20084;-69
2022/07/15 08:02:07;;;;;;;15.88;6.28;;;32.20;46.10;;;;;;5044551;28;20108;-69
2022/07/15 08:04:33;;;;;;;18.90;6.60;;;32.20;45.20;;;;;;5043982;28;20115;-69
2022/07/15 08:07:00;;;;;;;25.40;6.53;;;32.20;45.10;;;;;;5028610;28;20239;-71
2022/07/15 08:09:27;;;;;;;20.20;6.53;;;32.10;45.20;;;;;;5027543;28;20168;-71
2022/07/15 08:11:53;;;;;;;21.58;7.25;;;32.10;45.40;;;;;;5027290;28;20119;-71
2022/07/15 08:14:19;;;;;;;22.73;7.93;;;32.00;45.60;;;;;;5028550;28;20089;-71
2022/07/15 08:16:46;;;;;;;26.23;9.02;;;31.90;46.40;;;;;;5044354;28;20091;-69
2022/07/15 08:19:15;;;;;;;21.08;8.52;;;31.80;47.20;;;;;;5026750;28;20752;-69
2022/07/15 08:21:42;;;;;;;26.13;8.45;;;31.80;46.60;;;;;;5026813;28;20137;-70
2022/07/15 08:24:10;;;;;;;21.85;7.90;;;31.90;46.00;;;;;;5026855;28;20079;-70
2022/07/15 08:26:37;;;;;;;22.63;8.38;;;31.80;45.70;;;;;;5028221;28;20077;-69
2022/07/15 08:29:04;;;;;;;20.90;8.85;;;31.80;45.30;;;;;;5043717;28;20065;-70
2022/07/15 08:31:32;;;;;;;25.67;8.13;;;31.80;44.70;;;;;;5027272;28;20066;-68
2022/07/15 08:33:58;;;;;;;26.38;7.25;;;31.80;44.00;;;;;;5043069;28;20088;-70
2022/07/15 08:36:24;;;;;;;18.83;7.20;;;31.80;43.70;;;;;;5026755;28;20081;-70
2022/07/15 08:38:51;;;;;;;20.63;6.78;;;31.70;44.70;;;;;;5011152;28;20539;-71
2022/07/15 08:41:18;;;;;;;16.55;6.18;;;31.70;45.00;;;;;;5047520;28;20131;-69
2022/07/15 08:43:45;;;;;;;16.33;5.45;;;31.70;46.10;;;;;;5030473;28;20069;-69
2022/07/15 08:46:13;;;;;;;20.42;5.90;;;31.70;46.60;;;;;;5030934;28;20088;-70
2022/07/15 08:48:46;;;;;;;18.15;5.78;;;31.60;48.10;;;;;;5045902;28;20569;-69
2022/07/15 08:51:14;;;;;;;24.98;5.50;;;31.50;49.80;;;;;;5046259;28;20080;-70
2022/07/15 08:53:41;;;;;;;19.23;5.93;;;31.50;51.70;;;;;;5031484;28;20191;-70
2022/07/15 08:56:07;;;;;;;18.73;5.78;;;31.50;52.90;;;;;;5030285;28;20096;-70
2022/07/15 08:58:36;;;;;;;23.27;6.40;;;31.40;53.70;;;;;;5030338;28;20118;-70
2022/07/15 09:01:03;;;;;;;36.42;6.72;;;31.30;53.90;;;;;;5031527;28;20539;-69
2022/07/15 09:03:29;;;;;;;34.80;7.22;;;31.40;53.60;;;;;;5030122;28;20096;-71
2022/07/15 09:05:56;;;;;;;28.27;6.55;;;31.30;52.80;;;;;;5046828;28;20069;-73
2022/07/15 09:08:23;;;;;;;25.17;6.53;;;31.40;52.90;;;;;;5031682;28;20081;-72
2022/07/15 09:10:52;;;;;;;28.98;6.60;;;31.30;53.00;;;;;;5030700;28;20077;-73
2022/07/15 09:13:36;;;;;;;20.98;6.57;;;31.30;53.20;;;;;;5030349;28;20077;-69
2022/07/15 09:16:11;;;;;;;22.70;6.72;;;31.30;53.80;;;;;;5029610;28;20540;-68
2022/07/15 09:18:43;;;;;;;22.48;6.90;;;31.30;54.60;;;;;;5030352;28;20486;-68
2022/07/15 09:21:25;;;;;;;23.25;7.05;;;31.20;55.40;;;;;;5029779;28;20411;-70
2022/07/15 09:23:56;;;;;;;28.08;6.63;;;31.30;55.90;;;;;;5029460;28;20074;-69
2022/07/15 09:26:30;;;;;;;18.73;7.13;;;31.20;56.10;;;;;;5031436;28;20089;-71
2022/07/15 09:28:57;;;;;;;29.80;6.80;;;31.20;56.40;;;;;;5045745;28;20105;-71
2022/07/15 09:34:18;;;;;;;27.88;7.95;;;31.20;57.00;;;;;;5030181;28;20176;-68
2022/07/15 09:36:50;;;;;;;29.23;8.13;;;31.10;58.10;;;;;;5046128;28;20084;-69
2022/07/15 09:39:18;;;;;;;24.02;7.50;;;31.10;59.00;;;;;;5030004;28;20487;-70
2022/07/15 09:41:46;;;;;;;22.73;7.22;;;31.00;59.80;;;;;;5046421;28;20527;-69
2022/07/15 09:44:23;;;;;;;32.97;7.88;;;31.00;62.20;;;;;;5012984;28;20076;-69
2022/07/15 09:46:50;;;;;;;24.08;6.40;;;31.00;63.90;;;;;;5029937;28;20071;-70
2022/07/15 09:50:00;;;;;;;31.70;8.00;;;30.90;65.80;;;;;;5029582;28;20529;-69
2022/07/15 09:52:47;;;;;;;21.20;7.40;;;30.80;67.60;;;;;;5027732;28;20068;-71
2022/07/15 09:55:14;;;;;;;30.80;8.63;;;30.70;69.20;;;;;;5030398;28;20085;-72
2022/07/15 09:57:40;;;;;;;39.80;12.25;;;30.70;70.10;;;;;;5029313;28;20142;-70
2022/07/15 10:00:07;;;;;;;48.85;15.10;;;30.70;70.60;;;;;;5028963;28;20098;-71
2022/07/15 10:02:34;;;;;;;49.20;14.60;;;30.70;71.30;;;;;;5046378;28;20180;-72
2022/07/15 10:05:00;;;;;;;41.72;15.25;;;30.70;71.70;;;;;;5045652;28;20135;-71
2022/07/15 10:07:28;;;;;;;43.95;15.57;;;30.70;71.80;;;;;;5029172;28;20077;-69
2022/07/15 10:09:55;;;;;;;47.28;16.08;;;30.70;72.00;;;;;;5029472;28;20135;-72
2022/07/15 10:12:25;;;;;;;35.00;14.73;;;30.60;72.40;;;;;;5028576;28;20143;-70
2022/07/15 10:15:06;;;;;;;40.55;13.25;;;30.50;72.80;;;;;;5045422;28;20101;-70
2022/07/15 10:17:36;;;;;;;36.05;9.85;;;30.40;73.40;;;;;;5030653;28;20523;-69
2022/07/15 10:20:38;;;;;;;38.72;8.90;;;30.50;74.60;;;;;;5028947;28;20077;-72
2022/07/15 10:23:28;;;;;;;24.02;7.68;;;30.40;76.60;;;;;;5012394;28;20162;-72
2022/07/15 10:26:25;;;;;;;30.83;7.60;;;30.30;77.90;;;;;;5028648;28;20078;-71
2022/07/15 10:28:57;;;;;;;25.02;7.20;;;30.30;79.80;;;;;;5027351;28;20116;-70
2022/07/15 10:31:26;;;;;;;70.57;9.38;;;30.40;80.70;;;;;;5043205;28;20108;-71
2022/07/15 10:34:11;;;;;;;31.10;6.28;;;30.40;81.30;;;;;;5029605;28;20089;-70
2022/07/15 10:36:46;;;;;;;19.27;5.97;;;30.40;81.70;;;;;;5029998;28;20100;-69
2022/07/15 10:39:14;;;;;;;29.65;7.40;;;30.40;82.40;;;;;;5028463;28;20072;-70
2022/07/15 10:41:58;;;;;;;22.60;6.45;;;30.40;82.60;;;;;;5029894;28;20073;-71
2022/07/15 10:44:29;;;;;;;31.98;7.53;;;30.30;83.00;;;;;;5027291;28;20454;-69
2022/07/15 10:47:13;;;;;;;28.90;7.03;;;30.20;83.70;;;;;;5045463;28;20073;-69
2022/07/15 10:49:42;;;;;;;24.05;6.47;;;30.10;84.50;;;;;;5028627;28;20539;-71
2022/07/15 10:52:20;;;;;;;28.33;7.45;;;30.10;85.00;;;;;;5011373;28;20088;-70
2022/07/15 10:54:48;;;;;;;27.27;7.35;;;30.10;85.40;;;;;;5028269;28;20084;-70
2022/07/15 10:57:17;;;;;;;27.42;7.28;;;30.20;85.60;;;;;;5044088;28;20528;-70
2022/07/15 10:59:52;;;;;;;31.35;7.65;;;30.20;85.70;;;;;;5043994;28;20550;-69
2022/07/15 11:02:20;;;;;;;28.13;7.97;;;30.10;86.20;;;;;;5027389;28;20097;-69
2022/07/15 11:04:47;;;;;;;32.33;7.82;;;30.10;86.40;;;;;;5029303;28;20160;-69
2022/07/15 11:07:14;;;;;;;30.67;9.95;;;30.10;86.50;;;;;;5028248;28;20076;-70
2022/07/15 11:09:46;;;;;;;36.67;11.90;;;30.10;86.30;;;;;;5028029;28;20100;-71
2022/07/15 11:12:31;;;;;;;35.72;12.77;;;30.10;86.30;;;;;;5026401;28;20080;-69
2022/07/15 11:15:11;;;;;;;42.80;13.85;;;30.10;86.20;;;;;;5027860;28;20509;-70
2022/07/15 11:17:43;;;;;;;31.55;10.23;;;30.10;86.10;;;;;;5028850;28;20073;-70
2022/07/15 11:20:15;;;;;;;28.05;8.30;;;30.00;86.10;;;;;;5027798;28;20439;-71
2022/07/15 11:22:44;;;;;;;22.10;6.15;;;30.00;86.10;;;;;;5027746;28;20077;-69
2022/07/15 11:25:20;;;;;;;24.98;5.43;;;30.00;86.30;;;;;;5026570;28;20599;-69
2022/07/15 11:28:13;;;;;;;23.95;4.70;;;30.00;86.50;;;;;;5028447;28;20075;-70
2022/07/15 11:30:41;;;;;;;16.50;4.50;;;30.00;87.20;;;;;;5027517;28;20077;-70
2022/07/15 11:33:13;;;;;;;22.17;5.00;;;30.00;87.00;;;;;;5027596;28;20078;-68
2022/07/15 11:35:47;;;;;;;21.73;4.68;;;30.10;88.10;;;;;;5043033;28;20096;-72
2022/07/15 11:38:13;;;;;;;17.80;4.75;;;30.00;87.90;;;;;;5027336;28;20101;-72
2022/07/15 11:46:19;;;;;;;22.42;4.10;;;30.00;89.50;;;;;;5028395;28;20104;-70
2022/07/15 11:48:45;;;;;;;20.88;4.75;;;29.90;90.00;;;;;;5028432;28;20097;-72
2022/07/15 11:51:12;;;;;;;15.82;4.07;;;29.80;90.10;;;;;;5027504;28;20128;-72
2022/07/15 11:53:45;;;;;;;21.58;4.63;;;29.70;90.50;;;;;;5010927;28;20163;-70
2022/07/15 11:56:13;;;;;;;21.92;4.40;;;29.70;91.30;;;;;;5027017;28;20099;-70
2022/07/15 11:58:41;;;;;;;24.27;4.88;;;29.80;91.80;;;;;;5026064;28;20101;-69
2022/07/15 12:01:13;;;;;;;23.73;5.00;;;29.80;91.30;;;;;;5027261;28;20069;-71
2022/07/15 12:03:50;;;;;;;28.77;5.50;;;29.80;91.70;;;;;;5027109;28;20095;-68
2022/07/15 12:06:21;;;;;;;20.02;5.15;;;29.80;91.60;;;;;;5027253;28;20089;-70
2022/07/15 12:08:56;;;;;;;19.85;5.03;;;29.80;91.20;;;;;;5027458;28;20085;-69
2022/07/15 12:11:33;;;;;;;19.73;4.47;;;29.80;91.10;;;;;;5026386;28;20104;-69
2022/07/15 12:14:06;;;;;;;24.27;5.38;;;29.90;90.80;;;;;;5029326;28;20572;-69
2022/07/15 12:16:42;;;;;;;19.85;4.57;;;29.90;90.70;;;;;;5031782;28;20108;-72
2022/07/15 12:19:15;;;;;;;26.80;5.60;;;29.90;90.70;;;;;;5046681;28;20068;-69
2022/07/15 12:21:42;;;;;;;18.10;5.25;;;30.00;90.50;;;;;;5031220;28;20141;-71
2022/07/15 12:24:12;;;;;;;24.05;5.90;;;30.00;90.00;;;;;;5030742;28;20482;-69
2022/07/15 12:26:59;;;;;;;21.50;4.88;;;30.00;86.30;;;;;;5030995;28;20069;-69
2022/07/15 12:29:29;;;;;;;29.08;6.03;;;29.90;85.20;;;;;;5031332;28;20105;-70
2022/07/15 12:32:00;;;;;;;23.38;6.03;;;29.80;85.50;;;;;;5030457;28;20069;-70
2022/07/15 12:34:48;;;;;;;23.20;6.20;;;29.90;86.30;;;;;;5030556;28;20551;-71
2022/07/15 12:37:19;;;;;;;17.45;5.63;;;29.90;86.30;;;;;;5047663;28;20084;-72
2022/07/15 12:40:09;;;;;;;20.92;5.47;;;29.90;88.20;;;;;;5031749;28;20069;-68
2022/07/15 12:42:41;;;;;;;29.13;6.70;;;29.90;89.40;;;;;;5031946;28;20133;-69
2022/07/15 12:45:12;;;;;;;23.35;6.55;;;29.80;90.20;;;;;;5031835;28;20081;-69
2022/07/15 12:48:03;;;;;;;22.73;6.10;;;29.90;89.60;;;;;;5015344;28;20108;-68
2022/07/15 12:50:46;;;;;;;27.48;7.00;;;29.90;90.30;;;;;;5022452;28;20088;-69
2022/07/15 12:53:13;;;;;;;23.55;6.65;;;29.80;90.00;;;;;;5030349;28;20098;-69
2022/07/15 12:55:45;;;;;;;25.70;6.53;;;29.70;88.10;;;;;;5046674;28;20453;-70